sensor_id;sensor_type;location;lat;lon;timestamp;temperature;humidity
7360;DHT22;3720;48.274;7.796;2023-05-29T00:00:17;17.60;99.90
7360;DHT22;3720;48.274;7.796;2023-05-29T00:02:51;17.40;99.90
7360;DHT22;3720;48.274;7.796;2023-05-29T00:05:24;17.40;99.90
7360;DHT22;3720;48.274;7.796;2023-05-29T00:07:56;17.30;99.90
7360;DHT22;3720;48.274;7.796;2023-05-29T00:10:28;17.10;99.90
7360;DHT22;3720;48.274;7.796;2023-05-29T00:13:01;17.10;99.90
7360;DHT22;3720;48.274;7.796;2023-05-29T00:15:33;17.10;99.90
7360;DHT22;3720;48.274;7.796;2023-05-29T00:18:05;17.00;99.90
7360;DHT22;3720;48.274;7.796;2023-05-29T00:20:39;16.90;99.90
7360;DHT22;3720;48.274;7.796;2023-05-29T00:23:10;16.90;99.90
7360;DHT22;3720;48.274;7.796;2023-05-29T00:25:43;16.90;99.90
7360;DHT22;3720;48.274;7.796;2023-05-29T00:28:14;16.80;99.90
7360;DHT22;3720;48.274;7.796;2023-05-29T00:30:47;16.70;99.90
7360;DHT22;3720;48.274;7.796;2023-05-29T00:33:18;16.70;99.90
7360;DHT22;3720;48.274;7.796;2023-05-29T00:35:52;16.60;99.90
7360;DHT22;3720;48.274;7.796;2023-05-29T00:38:24;16.50;99.90
7360;DHT22;3720;48.274;7.796;2023-05-29T00:40:55;16.40;99.90
7360;DHT22;3720;48.274;7.796;2023-05-29T00:43:29;16.30;99.90
7360;DHT22;3720;48.274;7.796;2023-05-29T00:46:01;16.30;99.90
7360;DHT22;3720;48.274;7.796;2023-05-29T00:48:33;16.20;99.90
7360;DHT22;3720;48.274;7.796;2023-05-29T00:51:07;16.00;99.90
7360;DHT22;3720;48.274;7.796;2023-05-29T00:53:40;16.00;99.90
7360;DHT22;3720;48.274;7.796;2023-05-29T00:56:13;15.90;99.90
7360;DHT22;3720;48.274;7.796;2023-05-29T00:58:48;15.90;99.90
7360;DHT22;3720;48.274;7.796;2023-05-29T01:01:21;15.90;99.90
7360;DHT22;3720;48.274;7.796;2023-05-29T01:03:55;15.80;99.90
7360;DHT22;3720;48.274;7.796;2023-05-29T01:06:30;15.70;99.90
7360;DHT22;3720;48.274;7.796;2023-05-29T01:09:02;15.60;99.90
7360;DHT22;3720;48.274;7.796;2023-05-29T01:11:41;15.60;99.90
7360;DHT22;3720;48.274;7.796;2023-05-29T01:14:23;15.60;99.90
7360;DHT22;3720;48.274;7.796;2023-05-29T01:17:03;15.50;99.90
7360;DHT22;3720;48.274;7.796;2023-05-29T01:19:53;15.50;99.90
7360;DHT22;3720;48.274;7.796;2023-05-29T01:22:41;15.40;99.90
7360;DHT22;3720;48.274;7.796;2023-05-29T01:25:23;15.30;99.90
7360;DHT22;3720;48.274;7.796;2023-05-29T01:28:04;15.30;99.90
7360;DHT22;3720;48.274;7.796;2023-05-29T01:30:37;15.30;99.90
7360;DHT22;3720;48.274;7.796;2023-05-29T01:33:10;15.30;99.90
7360;DHT22;3720;48.274;7.796;2023-05-29T01:35:42;15.20;99.90
7360;DHT22;3720;48.274;7.796;2023-05-29T01:38:14;15.20;99.90
7360;DHT22;3720;48.274;7.796;2023-05-29T01:40:47;15.10;99.90
7360;DHT22;3720;48.274;7.796;2023-05-29T01:43:21;15.10;99.90
7360;DHT22;3720;48.274;7.796;2023-05-29T01:45:53;15.00;99.90
7360;DHT22;3720;48.274;7.796;2023-05-29T01:48:26;14.90;99.90
7360;DHT22;3720;48.274;7.796;2023-05-29T01:50:59;14.80;99.90
7360;DHT22;3720;48.274;7.796;2023-05-29T01:53:31;14.70;99.90
7360;DHT22;3720;48.274;7.796;2023-05-29T01:56:04;14.60;99.90
7360;DHT22;3720;48.274;7.796;2023-05-29T01:58:39;14.50;99.90
7360;DHT22;3720;48.274;7.796;2023-05-29T02:01:11;14.40;99.90
7360;DHT22;3720;48.274;7.796;2023-05-29T02:03:44;14.40;99.90
7360;DHT22;3720;48.274;7.796;2023-05-29T02:06:15;14.40;99.90
7360;DHT22;3720;48.274;7.796;2023-05-29T02:08:47;14.40;99.90
7360;DHT22;3720;48.274;7.796;2023-05-29T02:11:19;14.40;99.90
7360;DHT22;3720;48.274;7.796;2023-05-29T02:13:53;14.30;99.90
7360;DHT22;3720;48.274;7.796;2023-05-29T02:16:25;14.30;99.90
7360;DHT22;3720;48.274;7.796;2023-05-29T02:18:58;14.30;99.90
7360;DHT22;3720;48.274;7.796;2023-05-29T02:21:30;14.20;99.90
7360;DHT22;3720;48.274;7.796;2023-05-29T02:24:02;14.20;99.90
7360;DHT22;3720;48.274;7.796;2023-05-29T02:26:34;14.10;99.90
7360;DHT22;3720;48.274;7.796;2023-05-29T02:29:08;14.10;99.90
7360;DHT22;3720;48.274;7.796;2023-05-29T02:31:41;14.00;99.90
7360;DHT22;3720;48.274;7.796;2023-05-29T02:34:13;13.90;99.90
7360;DHT22;3720;48.274;7.796;2023-05-29T02:36:45;13.90;99.90
7360;DHT22;3720;48.274;7.796;2023-05-29T02:39:17;13.80;99.90
7360;DHT22;3720;48.274;7.796;2023-05-29T02:41:49;13.80;99.90
7360;DHT22;3720;48.274;7.796;2023-05-29T02:44:22;13.80;99.90
7360;DHT22;3720;48.274;7.796;2023-05-29T02:46:54;13.80;99.90
7360;DHT22;3720;48.274;7.796;2023-05-29T02:49:26;13.70;99.90
7360;DHT22;3720;48.274;7.796;2023-05-29T02:51:58;13.70;99.90
7360;DHT22;3720;48.274;7.796;2023-05-29T02:54:30;13.80;99.90
7360;DHT22;3720;48.274;7.796;2023-05-29T02:57:02;13.60;99.90
7360;DHT22;3720;48.274;7.796;2023-05-29T02:59:36;13.60;99.90
7360;DHT22;3720;48.274;7.796;2023-05-29T03:02:08;13.60;99.90
7360;DHT22;3720;48.274;7.796;2023-05-29T03:04:40;13.60;99.90
7360;DHT22;3720;48.274;7.796;2023-05-29T03:07:12;13.50;99.90
7360;DHT22;3720;48.274;7.796;2023-05-29T03:09:44;13.50;99.90
7360;DHT22;3720;48.274;7.796;2023-05-29T03:12:16;13.50;99.90
7360;DHT22;3720;48.274;7.796;2023-05-29T03:14:50;13.40;99.90
7360;DHT22;3720;48.274;7.796;2023-05-29T03:17:22;13.40;99.90
7360;DHT22;3720;48.274;7.796;2023-05-29T03:19:54;13.40;99.90
7360;DHT22;3720;48.274;7.796;2023-05-29T03:22:26;13.40;99.90
7360;DHT22;3720;48.274;7.796;2023-05-29T03:24:58;13.40;99.90
7360;DHT22;3720;48.274;7.796;2023-05-29T03:27:30;13.30;99.90
7360;DHT22;3720;48.274;7.796;2023-05-29T03:30:04;13.40;99.90
7360;DHT22;3720;48.274;7.796;2023-05-29T03:32:37;13.40;99.90
7360;DHT22;3720;48.274;7.796;2023-05-29T03:35:09;13.30;99.90
7360;DHT22;3720;48.274;7.796;2023-05-29T03:37:41;13.40;99.90
7360;DHT22;3720;48.274;7.796;2023-05-29T03:40:13;13.40;99.90
7360;DHT22;3720;48.274;7.796;2023-05-29T03:42:46;13.40;99.90
7360;DHT22;3720;48.274;7.796;2023-05-29T03:45:19;13.30;99.90
7360;DHT22;3720;48.274;7.796;2023-05-29T03:47:52;13.40;99.90
7360;DHT22;3720;48.274;7.796;2023-05-29T03:50:23;13.40;99.90
7360;DHT22;3720;48.274;7.796;2023-05-29T03:52:55;13.40;99.90
7360;DHT22;3720;48.274;7.796;2023-05-29T03:55:27;13.40;99.90
7360;DHT22;3720;48.274;7.796;2023-05-29T03:57:59;13.50;99.90
7360;DHT22;3720;48.274;7.796;2023-05-29T04:00:33;13.40;99.90
7360;DHT22;3720;48.274;7.796;2023-05-29T04:03:04;13.50;99.90
7360;DHT22;3720;48.274;7.796;2023-05-29T04:05:36;13.40;99.90
7360;DHT22;3720;48.274;7.796;2023-05-29T04:08:08;13.40;99.90
7360;DHT22;3720;48.274;7.796;2023-05-29T04:10:41;13.50;99.90
7360;DHT22;3720;48.274;7.796;2023-05-29T04:13:14;13.60;99.90
7360;DHT22;3720;48.274;7.796;2023-05-29T04:15:47;13.50;99.90
7360;DHT22;3720;48.274;7.796;2023-05-29T04:18:19;13.60;99.90
7360;DHT22;3720;48.274;7.796;2023-05-29T04:20:51;13.60;99.90
7360;DHT22;3720;48.274;7.796;2023-05-29T04:23:23;13.60;99.90
7360;DHT22;3720;48.274;7.796;2023-05-29T04:25:55;13.70;99.90
7360;DHT22;3720;48.274;7.796;2023-05-29T04:28:27;13.90;99.90
7360;DHT22;3720;48.274;7.796;2023-05-29T04:31:01;13.90;99.90
7360;DHT22;3720;48.274;7.796;2023-05-29T04:33:33;14.00;99.90
7360;DHT22;3720;48.274;7.796;2023-05-29T04:36:07;14.00;99.90
7360;DHT22;3720;48.274;7.796;2023-05-29T04:38:41;14.00;99.90
7360;DHT22;3720;48.274;7.796;2023-05-29T04:41:15;14.00;99.90
7360;DHT22;3720;48.274;7.796;2023-05-29T04:43:47;14.00;99.90
7360;DHT22;3720;48.274;7.796;2023-05-29T04:46:20;14.00;99.90
7360;DHT22;3720;48.274;7.796;2023-05-29T04:48:52;14.10;99.90
7360;DHT22;3720;48.274;7.796;2023-05-29T04:51:24;14.10;99.90
7360;DHT22;3720;48.274;7.796;2023-05-29T04:53:58;14.20;99.90
7360;DHT22;3720;48.274;7.796;2023-05-29T04:56:30;14.30;99.90
7360;DHT22;3720;48.274;7.796;2023-05-29T04:59:02;14.30;99.90
7360;DHT22;3720;48.274;7.796;2023-05-29T05:01:36;14.30;99.90
7360;DHT22;3720;48.274;7.796;2023-05-29T05:04:08;14.40;99.90
7360;DHT22;3720;48.274;7.796;2023-05-29T05:06:40;14.40;99.90
7360;DHT22;3720;48.274;7.796;2023-05-29T05:09:14;14.40;99.90
7360;DHT22;3720;48.274;7.796;2023-05-29T05:11:46;14.50;99.90
7360;DHT22;3720;48.274;7.796;2023-05-29T05:14:18;14.50;99.90
7360;DHT22;3720;48.274;7.796;2023-05-29T05:16:51;14.60;99.90
7360;DHT22;3720;48.274;7.796;2023-05-29T05:19:23;14.80;99.90
7360;DHT22;3720;48.274;7.796;2023-05-29T05:21:55;14.90;99.90
7360;DHT22;3720;48.274;7.796;2023-05-29T05:24:27;14.90;99.90
7360;DHT22;3720;48.274;7.796;2023-05-29T05:26:59;15.10;99.90
7360;DHT22;3720;48.274;7.796;2023-05-29T05:29:31;15.00;99.90
7360;DHT22;3720;48.274;7.796;2023-05-29T05:32:05;15.00;99.90
7360;DHT22;3720;48.274;7.796;2023-05-29T05:34:38;15.10;99.90
7360;DHT22;3720;48.274;7.796;2023-05-29T05:37:10;15.20;99.90
7360;DHT22;3720;48.274;7.796;2023-05-29T05:39:42;15.30;99.90
7360;DHT22;3720;48.274;7.796;2023-05-29T05:42:14;15.40;99.90
7360;DHT22;3720;48.274;7.796;2023-05-29T05:44:45;15.40;99.90
7360;DHT22;3720;48.274;7.796;2023-05-29T05:47:19;15.50;99.90
7360;DHT22;3720;48.274;7.796;2023-05-29T05:49:51;15.60;99.90
7360;DHT22;3720;48.274;7.796;2023-05-29T05:52:23;15.70;99.90
7360;DHT22;3720;48.274;7.796;2023-05-29T05:54:56;15.80;99.90
7360;DHT22;3720;48.274;7.796;2023-05-29T05:57:28;15.80;99.90
7360;DHT22;3720;48.274;7.796;2023-05-29T06:00:03;15.80;99.90
7360;DHT22;3720;48.274;7.796;2023-05-29T06:02:39;15.90;99.90
7360;DHT22;3720;48.274;7.796;2023-05-29T06:05:13;15.90;99.90
7360;DHT22;3720;48.274;7.796;2023-05-29T06:07:45;16.00;99.90
7360;DHT22;3720;48.274;7.796;2023-05-29T06:10:17;16.10;99.90
7360;DHT22;3720;48.274;7.796;2023-05-29T06:12:49;16.20;99.90
7360;DHT22;3720;48.274;7.796;2023-05-29T06:15:21;16.20;99.90
7360;DHT22;3720;48.274;7.796;2023-05-29T06:17:54;16.20;99.90
7360;DHT22;3720;48.274;7.796;2023-05-29T06:20:26;16.20;99.90
7360;DHT22;3720;48.274;7.796;2023-05-29T06:22:58;16.40;99.90
7360;DHT22;3720;48.274;7.796;2023-05-29T06:25:30;16.50;99.90
7360;DHT22;3720;48.274;7.796;2023-05-29T06:28:03;16.60;99.90
7360;DHT22;3720;48.274;7.796;2023-05-29T06:30:36;16.80;99.90
7360;DHT22;3720;48.274;7.796;2023-05-29T06:33:09;16.80;99.90
7360;DHT22;3720;48.274;7.796;2023-05-29T06:35:41;16.90;99.90
7360;DHT22;3720;48.274;7.796;2023-05-29T06:38:13;17.00;99.90
7360;DHT22;3720;48.274;7.796;2023-05-29T06:40:46;17.00;99.90
7360;DHT22;3720;48.274;7.796;2023-05-29T06:43:18;17.10;99.90
7360;DHT22;3720;48.274;7.796;2023-05-29T06:45:50;17.10;99.90
7360;DHT22;3720;48.274;7.796;2023-05-29T06:48:23;17.20;99.90
7360;DHT22;3720;48.274;7.796;2023-05-29T06:50:55;17.20;99.90
7360;DHT22;3720;48.274;7.796;2023-05-29T06:53:27;17.30;99.90
7360;DHT22;3720;48.274;7.796;2023-05-29T06:55:59;17.40;99.90
7360;DHT22;3720;48.274;7.796;2023-05-29T06:58:31;17.50;99.90
7360;DHT22;3720;48.274;7.796;2023-05-29T07:01:04;17.60;99.90
7360;DHT22;3720;48.274;7.796;2023-05-29T07:03:37;17.70;99.90
7360;DHT22;3720;48.274;7.796;2023-05-29T07:06:09;17.80;99.90
7360;DHT22;3720;48.274;7.796;2023-05-29T07:08:42;17.90;99.90
7360;DHT22;3720;48.274;7.796;2023-05-29T07:11:13;18.00;99.90
7360;DHT22;3720;48.274;7.796;2023-05-29T07:13:46;18.10;99.90
7360;DHT22;3720;48.274;7.796;2023-05-29T07:16:17;18.20;99.90
7360;DHT22;3720;48.274;7.796;2023-05-29T07:18:51;18.30;99.90
7360;DHT22;3720;48.274;7.796;2023-05-29T07:21:23;18.30;99.90
7360;DHT22;3720;48.274;7.796;2023-05-29T07:23:55;18.40;99.90
7360;DHT22;3720;48.274;7.796;2023-05-29T07:26:27;18.50;99.90
7360;DHT22;3720;48.274;7.796;2023-05-29T07:28:59;18.60;99.90
7360;DHT22;3720;48.274;7.796;2023-05-29T07:31:31;18.70;99.90
7360;DHT22;3720;48.274;7.796;2023-05-29T07:34:04;18.80;99.90
7360;DHT22;3720;48.274;7.796;2023-05-29T07:36:36;18.90;99.90
7360;DHT22;3720;48.274;7.796;2023-05-29T07:39:08;19.00;99.90
7360;DHT22;3720;48.274;7.796;2023-05-29T07:41:40;19.00;99.90
7360;DHT22;3720;48.274;7.796;2023-05-29T07:44:12;19.20;99.90
7360;DHT22;3720;48.274;7.796;2023-05-29T07:46:44;19.30;99.90
7360;DHT22;3720;48.274;7.796;2023-05-29T07:49:19;19.40;99.90
7360;DHT22;3720;48.274;7.796;2023-05-29T07:51:50;19.50;99.90
7360;DHT22;3720;48.274;7.796;2023-05-29T07:54:22;19.70;99.90
7360;DHT22;3720;48.274;7.796;2023-05-29T07:56:55;19.80;99.90
7360;DHT22;3720;48.274;7.796;2023-05-29T07:59:26;19.90;99.90
7360;DHT22;3720;48.274;7.796;2023-05-29T08:01:59;20.00;99.90
7360;DHT22;3720;48.274;7.796;2023-05-29T08:04:34;20.20;99.90
7360;DHT22;3720;48.274;7.796;2023-05-29T08:07:07;20.30;99.90
7360;DHT22;3720;48.274;7.796;2023-05-29T08:09:39;20.40;99.90
7360;DHT22;3720;48.274;7.796;2023-05-29T08:12:11;20.40;99.90
7360;DHT22;3720;48.274;7.796;2023-05-29T08:14:42;20.50;99.90
7360;DHT22;3720;48.274;7.796;2023-05-29T08:17:15;20.60;99.90
7360;DHT22;3720;48.274;7.796;2023-05-29T08:19:48;20.80;99.90
7360;DHT22;3720;48.274;7.796;2023-05-29T08:22:20;20.90;99.90
7360;DHT22;3720;48.274;7.796;2023-05-29T08:24:53;21.00;99.90
7360;DHT22;3720;48.274;7.796;2023-05-29T08:27:25;21.10;99.90
7360;DHT22;3720;48.274;7.796;2023-05-29T08:29:57;21.30;99.90
7360;DHT22;3720;48.274;7.796;2023-05-29T08:32:28;21.40;99.90
7360;DHT22;3720;48.274;7.796;2023-05-29T08:35:03;21.60;99.90
7360;DHT22;3720;48.274;7.796;2023-05-29T08:37:36;21.70;99.90
7360;DHT22;3720;48.274;7.796;2023-05-29T08:40:08;21.90;99.90
7360;DHT22;3720;48.274;7.796;2023-05-29T08:42:46;22.00;99.90
7360;DHT22;3720;48.274;7.796;2023-05-29T08:45:19;22.20;99.90
7360;DHT22;3720;48.274;7.796;2023-05-29T08:47:53;22.30;99.90
7360;DHT22;3720;48.274;7.796;2023-05-29T08:50:27;22.50;99.90
7360;DHT22;3720;48.274;7.796;2023-05-29T08:52:59;22.60;99.90
7360;DHT22;3720;48.274;7.796;2023-05-29T08:55:31;22.70;99.90
7360;DHT22;3720;48.274;7.796;2023-05-29T08:58:04;22.80;99.90
7360;DHT22;3720;48.274;7.796;2023-05-29T09:00:36;22.90;99.90
7360;DHT22;3720;48.274;7.796;2023-05-29T09:03:09;23.00;99.90
7360;DHT22;3720;48.274;7.796;2023-05-29T09:05:44;23.10;99.90
7360;DHT22;3720;48.274;7.796;2023-05-29T09:08:17;23.20;99.90
7360;DHT22;3720;48.274;7.796;2023-05-29T09:10:49;23.30;99.90
7360;DHT22;3720;48.274;7.796;2023-05-29T09:13:21;23.40;99.90
7360;DHT22;3720;48.274;7.796;2023-05-29T09:15:57;23.50;99.90
7360;DHT22;3720;48.274;7.796;2023-05-29T09:18:30;23.60;99.90
7360;DHT22;3720;48.274;7.796;2023-05-29T09:21:08;23.80;99.90
7360;DHT22;3720;48.274;7.796;2023-05-29T09:23:40;23.90;99.90
7360;DHT22;3720;48.274;7.796;2023-05-29T09:26:14;24.00;99.90
7360;DHT22;3720;48.274;7.796;2023-05-29T09:28:46;24.20;99.90
7360;DHT22;3720;48.274;7.796;2023-05-29T09:31:18;24.40;99.90
7360;DHT22;3720;48.274;7.796;2023-05-29T09:33:51;24.50;99.90
7360;DHT22;3720;48.274;7.796;2023-05-29T09:36:25;24.60;99.90
7360;DHT22;3720;48.274;7.796;2023-05-29T09:39:01;24.60;99.90
7360;DHT22;3720;48.274;7.796;2023-05-29T09:41:34;24.70;99.90
7360;DHT22;3720;48.274;7.796;2023-05-29T09:44:06;24.80;99.90
7360;DHT22;3720;48.274;7.796;2023-05-29T09:46:40;24.80;99.90
7360;DHT22;3720;48.274;7.796;2023-05-29T09:49:13;24.90;99.90
7360;DHT22;3720;48.274;7.796;2023-05-29T09:51:48;24.90;99.90
7360;DHT22;3720;48.274;7.796;2023-05-29T09:54:27;25.10;99.90
7360;DHT22;3720;48.274;7.796;2023-05-29T09:57:01;25.20;99.90
7360;DHT22;3720;48.274;7.796;2023-05-29T09:59:34;25.30;99.90
7360;DHT22;3720;48.274;7.796;2023-05-29T10:02:07;25.40;99.90
7360;DHT22;3720;48.274;7.796;2023-05-29T10:04:41;25.40;99.90
7360;DHT22;3720;48.274;7.796;2023-05-29T10:07:22;25.50;99.90
7360;DHT22;3720;48.274;7.796;2023-05-29T10:09:59;25.60;99.90
7360;DHT22;3720;48.274;7.796;2023-05-29T10:12:32;25.80;99.90
7360;DHT22;3720;48.274;7.796;2023-05-29T10:15:11;25.80;99.90
7360;DHT22;3720;48.274;7.796;2023-05-29T10:17:50;25.80;99.90
7360;DHT22;3720;48.274;7.796;2023-05-29T10:20:23;25.90;99.90
7360;DHT22;3720;48.274;7.796;2023-05-29T10:22:59;26.00;99.90
7360;DHT22;3720;48.274;7.796;2023-05-29T10:25:33;25.90;99.90
7360;DHT22;3720;48.274;7.796;2023-05-29T10:28:06;26.00;99.90
7360;DHT22;3720;48.274;7.796;2023-05-29T10:30:43;26.10;99.90
7360;DHT22;3720;48.274;7.796;2023-05-29T10:33:40;26.20;99.90
7360;DHT22;3720;48.274;7.796;2023-05-29T10:36:15;26.30;99.90
7360;DHT22;3720;48.274;7.796;2023-05-29T10:38:49;26.50;99.90
7360;DHT22;3720;48.274;7.796;2023-05-29T10:41:29;26.60;99.90
7360;DHT22;3720;48.274;7.796;2023-05-29T10:44:03;26.90;99.90
7360;DHT22;3720;48.274;7.796;2023-05-29T10:47:06;27.00;99.90
7360;DHT22;3720;48.274;7.796;2023-05-29T10:49:39;27.20;99.90
7360;DHT22;3720;48.274;7.796;2023-05-29T10:52:11;27.40;99.90
7360;DHT22;3720;48.274;7.796;2023-05-29T10:54:54;27.60;99.90
7360;DHT22;3720;48.274;7.796;2023-05-29T10:57:28;27.70;99.90
7360;DHT22;3720;48.274;7.796;2023-05-29T11:00:06;27.90;99.90
7360;DHT22;3720;48.274;7.796;2023-05-29T11:02:43;28.00;99.90
7360;DHT22;3720;48.274;7.796;2023-05-29T11:05:21;28.30;99.60
7360;DHT22;3720;48.274;7.796;2023-05-29T11:07:56;28.40;97.70
7360;DHT22;3720;48.274;7.796;2023-05-29T11:10:55;28.50;98.30
7360;DHT22;3720;48.274;7.796;2023-05-29T11:13:32;28.60;96.90
7360;DHT22;3720;48.274;7.796;2023-05-29T11:16:19;28.80;96.60
7360;DHT22;3720;48.274;7.796;2023-05-29T11:18:51;28.70;95.80
7360;DHT22;3720;48.274;7.796;2023-05-29T11:21:31;28.80;95.00
7360;DHT22;3720;48.274;7.796;2023-05-29T11:24:05;28.80;95.90
7360;DHT22;3720;48.274;7.796;2023-05-29T11:26:38;29.00;95.70
7360;DHT22;3720;48.274;7.796;2023-05-29T11:29:10;29.10;94.60
7360;DHT22;3720;48.274;7.796;2023-05-29T11:31:43;29.20;94.00
7360;DHT22;3720;48.274;7.796;2023-05-29T11:34:16;29.30;92.70
7360;DHT22;3720;48.274;7.796;2023-05-29T11:36:51;29.40;92.70
7360;DHT22;3720;48.274;7.796;2023-05-29T11:39:23;29.50;91.90
7360;DHT22;3720;48.274;7.796;2023-05-29T11:41:56;29.50;92.50
7360;DHT22;3720;48.274;7.796;2023-05-29T11:44:29;29.70;92.40
7360;DHT22;3720;48.274;7.796;2023-05-29T11:47:01;29.90;91.80
7360;DHT22;3720;48.274;7.796;2023-05-29T11:49:35;30.10;91.70
7360;DHT22;3720;48.274;7.796;2023-05-29T11:52:09;30.40;91.80
7360;DHT22;3720;48.274;7.796;2023-05-29T11:54:41;30.50;90.10
7360;DHT22;3720;48.274;7.796;2023-05-29T11:57:19;30.80;90.70
7360;DHT22;3720;48.274;7.796;2023-05-29T11:59:51;30.90;88.60
7360;DHT22;3720;48.274;7.796;2023-05-29T12:02:30;30.90;85.60
7360;DHT22;3720;48.274;7.796;2023-05-29T12:05:04;31.00;84.20
7360;DHT22;3720;48.274;7.796;2023-05-29T12:07:37;31.00;83.50
7360;DHT22;3720;48.274;7.796;2023-05-29T12:10:10;31.00;83.20
7360;DHT22;3720;48.274;7.796;2023-05-29T12:12:46;31.00;83.20
7360;DHT22;3720;48.274;7.796;2023-05-29T12:15:19;31.00;79.70
7360;DHT22;3720;48.274;7.796;2023-05-29T12:17:53;31.10;81.70
7360;DHT22;3720;48.274;7.796;2023-05-29T12:20:25;31.20;79.80
7360;DHT22;3720;48.274;7.796;2023-05-29T12:23:00;31.20;80.80
7360;DHT22;3720;48.274;7.796;2023-05-29T12:25:34;31.30;80.40
7360;DHT22;3720;48.274;7.796;2023-05-29T12:28:09;31.40;77.50
7360;DHT22;3720;48.274;7.796;2023-05-29T12:30:48;31.50;80.80
7360;DHT22;3720;48.274;7.796;2023-05-29T12:33:28;31.70;78.00
7360;DHT22;3720;48.274;7.796;2023-05-29T12:36:03;31.50;73.80
7360;DHT22;3720;48.274;7.796;2023-05-29T12:38:46;31.50;74.20
7360;DHT22;3720;48.274;7.796;2023-05-29T12:41:23;31.40;73.80
7360;DHT22;3720;48.274;7.796;2023-05-29T12:43:58;31.60;74.20
7360;DHT22;3720;48.274;7.796;2023-05-29T12:46:36;31.60;74.00
7360;DHT22;3720;48.274;7.796;2023-05-29T12:49:11;31.60;72.60
7360;DHT22;3720;48.274;7.796;2023-05-29T12:51:44;31.70;73.30
7360;DHT22;3720;48.274;7.796;2023-05-29T12:54:17;31.80;72.80
7360;DHT22;3720;48.274;7.796;2023-05-29T12:56:49;31.90;72.50
7360;DHT22;3720;48.274;7.796;2023-05-29T12:59:23;31.90;72.20
7360;DHT22;3720;48.274;7.796;2023-05-29T13:01:56;31.90;72.10
7360;DHT22;3720;48.274;7.796;2023-05-29T13:04:27;31.90;70.90
7360;DHT22;3720;48.274;7.796;2023-05-29T13:06:59;31.90;70.20
7360;DHT22;3720;48.274;7.796;2023-05-29T13:09:31;31.90;70.30
7360;DHT22;3720;48.274;7.796;2023-05-29T13:12:04;31.90;70.30
7360;DHT22;3720;48.274;7.796;2023-05-29T13:14:38;32.00;68.70
7360;DHT22;3720;48.274;7.796;2023-05-29T13:17:11;31.90;68.10
7360;DHT22;3720;48.274;7.796;2023-05-29T13:19:43;31.70;68.20
7360;DHT22;3720;48.274;7.796;2023-05-29T13:22:15;31.80;67.10
7360;DHT22;3720;48.274;7.796;2023-05-29T13:24:47;31.90;68.20
7360;DHT22;3720;48.274;7.796;2023-05-29T13:27:19;32.00;65.00
7360;DHT22;3720;48.274;7.796;2023-05-29T13:29:52;32.10;64.20
7360;DHT22;3720;48.274;7.796;2023-05-29T13:32:24;32.10;64.90
7360;DHT22;3720;48.274;7.796;2023-05-29T13:34:56;32.20;65.10
7360;DHT22;3720;48.274;7.796;2023-05-29T13:37:28;32.20;64.50
7360;DHT22;3720;48.274;7.796;2023-05-29T13:40:00;32.20;63.50
7360;DHT22;3720;48.274;7.796;2023-05-29T13:42:32;32.00;63.00
7360;DHT22;3720;48.274;7.796;2023-05-29T13:45:07;32.00;65.80
7360;DHT22;3720;48.274;7.796;2023-05-29T13:47:39;32.10;62.40
7360;DHT22;3720;48.274;7.796;2023-05-29T13:50:11;32.20;62.40
7360;DHT22;3720;48.274;7.796;2023-05-29T13:52:43;32.20;61.00
7360;DHT22;3720;48.274;7.796;2023-05-29T13:55:15;32.30;62.10
7360;DHT22;3720;48.274;7.796;2023-05-29T13:57:47;32.40;61.00
7360;DHT22;3720;48.274;7.796;2023-05-29T14:00:21;32.30;58.80
7360;DHT22;3720;48.274;7.796;2023-05-29T14:02:53;32.20;59.00
7360;DHT22;3720;48.274;7.796;2023-05-29T14:05:25;32.10;59.40
7360;DHT22;3720;48.274;7.796;2023-05-29T14:07:57;32.00;61.20
7360;DHT22;3720;48.274;7.796;2023-05-29T14:10:28;32.00;62.30
7360;DHT22;3720;48.274;7.796;2023-05-29T14:13:00;32.10;60.50
7360;DHT22;3720;48.274;7.796;2023-05-29T14:15:33;32.20;59.00
7360;DHT22;3720;48.274;7.796;2023-05-29T14:18:06;32.10;59.40
7360;DHT22;3720;48.274;7.796;2023-05-29T14:20:38;32.10;60.10
7360;DHT22;3720;48.274;7.796;2023-05-29T14:23:10;32.00;60.30
7360;DHT22;3720;48.274;7.796;2023-05-29T14:25:44;31.90;59.70
7360;DHT22;3720;48.274;7.796;2023-05-29T14:28:17;31.80;60.50
7360;DHT22;3720;48.274;7.796;2023-05-29T14:30:50;31.90;61.40
7360;DHT22;3720;48.274;7.796;2023-05-29T14:33:22;31.90;61.30
7360;DHT22;3720;48.274;7.796;2023-05-29T14:35:55;31.80;59.40
7360;DHT22;3720;48.274;7.796;2023-05-29T14:38:27;31.70;59.60
7360;DHT22;3720;48.274;7.796;2023-05-29T14:40:59;31.70;60.00
7360;DHT22;3720;48.274;7.796;2023-05-29T14:43:31;31.70;59.50
7360;DHT22;3720;48.274;7.796;2023-05-29T14:46:04;31.60;59.00
7360;DHT22;3720;48.274;7.796;2023-05-29T14:48:36;31.50;59.10
7360;DHT22;3720;48.274;7.796;2023-05-29T14:51:08;31.50;59.10
7360;DHT22;3720;48.274;7.796;2023-05-29T14:53:40;31.50;59.50
7360;DHT22;3720;48.274;7.796;2023-05-29T14:56:12;31.60;58.40
7360;DHT22;3720;48.274;7.796;2023-05-29T14:58:44;31.50;58.30
7360;DHT22;3720;48.274;7.796;2023-05-29T15:01:18;31.60;58.00
7360;DHT22;3720;48.274;7.796;2023-05-29T15:03:49;31.40;57.50
7360;DHT22;3720;48.274;7.796;2023-05-29T15:06:21;31.40;58.10
7360;DHT22;3720;48.274;7.796;2023-05-29T15:08:54;31.40;58.50
7360;DHT22;3720;48.274;7.796;2023-05-29T15:11:28;31.50;58.50
7360;DHT22;3720;48.274;7.796;2023-05-29T15:14:00;31.40;57.70
7360;DHT22;3720;48.274;7.796;2023-05-29T15:16:33;31.30;57.90
7360;DHT22;3720;48.274;7.796;2023-05-29T15:19:05;31.30;58.20
7360;DHT22;3720;48.274;7.796;2023-05-29T15:21:38;31.30;56.90
7360;DHT22;3720;48.274;7.796;2023-05-29T15:24:10;31.00;57.80
7360;DHT22;3720;48.274;7.796;2023-05-29T15:26:42;31.00;57.70
7360;DHT22;3720;48.274;7.796;2023-05-29T15:29:14;31.00;57.50
7360;DHT22;3720;48.274;7.796;2023-05-29T15:31:47;31.10;58.30
7360;DHT22;3720;48.274;7.796;2023-05-29T15:34:19;31.10;58.00
7360;DHT22;3720;48.274;7.796;2023-05-29T15:36:51;31.00;57.00
7360;DHT22;3720;48.274;7.796;2023-05-29T15:39:23;31.10;57.10
7360;DHT22;3720;48.274;7.796;2023-05-29T15:41:56;31.00;56.60
7360;DHT22;3720;48.274;7.796;2023-05-29T15:44:28;30.90;56.40
7360;DHT22;3720;48.274;7.796;2023-05-29T15:47:01;30.80;56.80
7360;DHT22;3720;48.274;7.796;2023-05-29T15:49:33;30.80;56.30
7360;DHT22;3720;48.274;7.796;2023-05-29T15:52:06;30.80;56.70
7360;DHT22;3720;48.274;7.796;2023-05-29T15:54:38;30.70;56.50
7360;DHT22;3720;48.274;7.796;2023-05-29T15:57:10;30.80;56.10
7360;DHT22;3720;48.274;7.796;2023-05-29T15:59:42;30.90;56.40
7360;DHT22;3720;48.274;7.796;2023-05-29T16:02:16;30.90;55.70
7360;DHT22;3720;48.274;7.796;2023-05-29T16:04:48;30.70;55.60
7360;DHT22;3720;48.274;7.796;2023-05-29T16:07:20;30.60;55.90
7360;DHT22;3720;48.274;7.796;2023-05-29T16:09:52;30.60;56.30
7360;DHT22;3720;48.274;7.796;2023-05-29T16:12:25;30.70;56.10
7360;DHT22;3720;48.274;7.796;2023-05-29T16:14:59;30.60;56.20
7360;DHT22;3720;48.274;7.796;2023-05-29T16:17:34;30.60;55.80
7360;DHT22;3720;48.274;7.796;2023-05-29T16:20:06;30.50;55.50
7360;DHT22;3720;48.274;7.796;2023-05-29T16:22:39;30.40;56.20
7360;DHT22;3720;48.274;7.796;2023-05-29T16:25:11;30.30;56.30
7360;DHT22;3720;48.274;7.796;2023-05-29T16:27:43;30.30;55.80
7360;DHT22;3720;48.274;7.796;2023-05-29T16:30:15;30.30;55.50
7360;DHT22;3720;48.274;7.796;2023-05-29T16:32:49;30.20;55.70
7360;DHT22;3720;48.274;7.796;2023-05-29T16:35:21;30.10;55.60
7360;DHT22;3720;48.274;7.796;2023-05-29T16:37:53;30.10;56.10
7360;DHT22;3720;48.274;7.796;2023-05-29T16:40:25;30.10;56.20